createdAt,value
2019-04-07T00:00:46.502Z,23.80
2019-04-07T00:06:35.270Z,18.77
2019-04-07T00:14:59.920Z,17.93
2019-04-07T00:20:30.874Z,18.10
2019-04-07T00:23:10.693Z,19.13
2019-04-07T00:25:50.947Z,18.60
2019-04-07T00:28:31.273Z,21.20
2019-04-07T00:31:18.218Z,23.23
2019-04-07T00:39:45.096Z,21.27
2019-04-07T00:42:13.569Z,22.40
2019-04-07T00:44:42.152Z,24.60
2019-04-07T00:47:21.923Z,27.63
2019-04-07T00:53:11.168Z,25.93
2019-04-07T00:56:20.471Z,25.43
2019-04-07T00:58:55.906Z,27.50
2019-04-07T01:01:24.552Z,28.50
2019-04-07T01:04:03.747Z,27.33
2019-04-07T01:06:31.989Z,27.23
2019-04-07T01:12:20.417Z,23.67
2019-04-07T01:14:57.137Z,24.53
2019-04-07T01:17:24.753Z,24.70
2019-04-07T01:19:52.940Z,24.73
2019-04-07T01:29:06.286Z,22.87
2019-04-07T01:37:16.231Z,23.70
2019-04-07T01:40:25.645Z,22.33
2019-04-07T01:43:20.711Z,22.17
2019-04-07T01:46:28.942Z,21.37
2019-04-07T01:49:16.354Z,22.30
2019-04-07T01:52:12.958Z,22.20
2019-04-07T01:55:32.236Z,21.17
2019-04-07T02:01:40.096Z,24.00
2019-04-07T02:04:48.026Z,22.53
2019-04-07T02:07:35.921Z,21.17
2019-04-07T02:10:44.640Z,21.00
2019-04-07T02:16:53.101Z,21.97
2019-04-07T02:19:36.193Z,23.17
2019-04-07T02:22:27.690Z,23.43
2019-04-07T02:25:03.495Z,22.43
2019-04-07T02:27:46.784Z,23.57
2019-04-07T02:33:55.124Z,21.87
2019-04-07T02:37:04.663Z,21.90
2019-04-07T02:42:57.719Z,21.73
2019-04-07T02:45:45.532Z,21.20
2019-04-07T02:48:33.739Z,22.50
2019-04-07T02:51:54.170Z,24.27
2019-04-07T02:54:38.312Z,22.13
2019-04-07T02:57:26.128Z,22.47
2019-04-07T03:03:41.464Z,21.23
2019-04-07T03:06:39.174Z,21.00
2019-04-07T03:12:45.411Z,20.80
2019-04-07T03:18:42.461Z,22.27
2019-04-07T03:21:33.218Z,22.63
2019-04-07T03:24:21.033Z,22.47
2019-04-07T03:27:20.223Z,22.30
2019-04-07T03:30:09.259Z,22.60
2019-04-07T03:33:26.201Z,22.17
2019-04-07T03:36:29.175Z,21.57
2019-04-07T03:39:20.448Z,22.37
2019-04-07T03:42:15.707Z,22.47
2019-04-07T03:44:59.085Z,25.27
2019-04-07T03:51:06.764Z,24.90
2019-04-07T03:53:54.087Z,23.47
2019-04-07T04:00:02.296Z,27.85
2019-04-07T04:02:50.560Z,21.63
2019-04-07T04:05:52.109Z,23.30
2019-04-07T04:11:20.240Z,22.60
2019-04-07T04:14:36.408Z,24.20
2019-04-07T04:17:16.551Z,23.30
2019-04-07T04:19:44.927Z,23.07
2019-04-07T04:22:14.144Z,22.80
2019-04-07T04:24:43.632Z,22.37
2019-04-07T04:33:33.138Z,24.13
2019-04-07T04:36:01.341Z,24.20
2019-04-07T04:38:29.903Z,24.60
2019-04-07T04:40:58.621Z,24.33
2019-04-07T04:43:27.561Z,24.87
2019-04-07T04:46:36.783Z,23.53
2019-04-07T04:52:18.067Z,23.03
2019-04-07T05:01:26.618Z,19.77
2019-04-07T05:03:54.497Z,18.07
2019-04-07T05:06:22.753Z,21.00
2019-04-07T05:08:51.212Z,27.03
2019-04-07T05:11:30.704Z,33.53
2019-04-07T05:13:59.296Z,32.40
2019-04-07T05:16:27.622Z,33.57
2019-04-07T05:22:38.547Z,23.73
2019-04-07T05:25:07.146Z,20.40
2019-04-07T05:27:54.653Z,21.33
2019-04-07T05:30:23.518Z,21.73
2019-04-07T05:33:32.041Z,25.67
2019-04-07T05:36:12.227Z,25.77
2019-04-07T05:38:40.946Z,25.37
2019-04-07T05:43:55.839Z,23.10
2019-04-07T05:46:25.043Z,23.83
2019-04-07T05:54:56.174Z,22.77
2019-04-07T06:00:33.797Z,28.03
2019-04-07T06:03:13.062Z,27.80
2019-04-07T06:05:52.837Z,26.80
2019-04-07T06:08:29.458Z,27.50
2019-04-07T06:14:40.138Z,32.10
2019-04-07T06:23:02.019Z,23.90
2019-04-07T06:31:33.947Z,21.67
2019-04-07T06:37:02.411Z,30.20
2019-04-07T06:39:39.089Z,22.13
2019-04-07T06:42:25.773Z,25.13
2019-04-07T06:44:54.325Z,21.37
2019-04-07T06:47:42.047Z,19.77
2019-04-07T06:50:57.782Z,20.20
2019-04-07T06:59:54.542Z,18.60
2019-04-07T07:03:04.159Z,17.53
2019-04-07T07:05:57.495Z,18.63
2019-04-07T07:08:54.192Z,17.43
2019-04-07T07:12:18.674Z,18.17
2019-04-07T07:18:23.716Z,17.23
2019-04-07T07:27:08.531Z,17.07
2019-04-07T07:32:56.432Z,13.77
2019-04-07T07:35:32.314Z,19.30
2019-04-07T07:38:00.572Z,16.37
2019-04-07T07:43:38.170Z,9.83
2019-04-07T07:46:06.811Z,8.60
2019-04-07T07:48:42.824Z,9.83
2019-04-07T07:51:50.738Z,8.93
2019-04-07T07:54:31.562Z,11.33
2019-04-07T08:00:21.026Z,12.23
2019-04-07T08:06:02.095Z,9.10
2019-04-07T08:08:30.049Z,13.90
2019-04-07T08:11:38.975Z,9.97
2019-04-07T08:14:18.066Z,9.40
2019-04-07T08:16:55.449Z,9.50
2019-04-07T08:19:38.211Z,9.37
2019-04-07T08:22:07.692Z,9.70
2019-04-07T08:27:45.658Z,11.00
2019-04-07T08:30:54.430Z,12.93
2019-04-07T08:33:30.435Z,9.30
2019-04-07T08:36:42.507Z,9.87
2019-04-07T08:39:23.933Z,10.87
2019-04-07T08:42:26.891Z,11.13
2019-04-07T08:45:26.683Z,9.50
2019-04-07T08:48:01.277Z,9.73
2019-04-07T08:53:50.347Z,10.47
2019-04-07T08:56:18.381Z,9.97
2019-04-07T08:58:46.180Z,9.93
2019-04-07T09:01:54.806Z,9.77
2019-04-07T09:04:24.141Z,9.97
2019-04-07T09:07:33.477Z,9.80
2019-04-07T09:10:20.437Z,9.37
2019-04-07T09:12:47.381Z,10.27
2019-04-07T09:15:55.709Z,9.73
2019-04-07T09:18:52.241Z,10.30
2019-04-07T09:21:42.024Z,10.27
2019-04-07T09:24:34.907Z,10.10
2019-04-07T09:27:23.451Z,10.67
2019-04-07T09:30:17.841Z,11.80
2019-04-07T09:33:26.145Z,10.70
2019-04-07T09:36:09.054Z,11.07
2019-04-07T09:39:04.035Z,11.03
2019-04-07T09:42:10.645Z,11.20
2019-04-07T09:44:46.760Z,12.90
2019-04-07T09:50:36.426Z,10.43
2019-04-07T09:53:48.812Z,12.27
2019-04-07T09:56:40.683Z,13.33
2019-04-07T09:59:28.541Z,12.00
2019-04-07T10:02:16.483Z,13.80
2019-04-07T10:08:07.158Z,15.73
2019-04-07T10:11:03.120Z,15.40
2019-04-07T10:13:51.145Z,15.30
2019-04-07T10:16:39.396Z,15.83
2019-04-07T10:22:42.982Z,15.37
2019-04-07T10:25:37.928Z,14.60
2019-04-07T10:31:32.754Z,13.97
2019-04-07T10:34:28.431Z,15.30
2019-04-07T10:37:06.819Z,14.97
2019-04-07T10:39:57.903Z,14.83
2019-04-07T10:42:50.251Z,14.37
2019-04-07T10:45:28.422Z,13.90
2019-04-07T10:51:45.838Z,13.80
2019-04-07T10:54:54.549Z,13.67
2019-04-07T11:00:15.753Z,15.00
2019-04-07T11:05:43.235Z,16.13
2019-04-07T11:11:58.893Z,16.17
2019-04-07T11:14:46.657Z,15.53
2019-04-07T11:17:34.401Z,15.73
2019-04-07T11:23:31.917Z,16.63
2019-04-07T11:29:00.137Z,16.17
2019-04-07T11:31:48.469Z,15.97
2019-04-07T11:35:02.840Z,17.90
2019-04-07T11:40:53.534Z,17.80
2019-04-07T11:44:00.731Z,18.00
2019-04-07T11:46:48.390Z,16.73
2019-04-07T11:49:55.302Z,17.43
2019-04-07T11:52:42.334Z,16.37
2019-04-07T11:55:18.421Z,16.73
2019-04-07T11:58:26.090Z,16.40
2019-04-07T12:01:01.288Z,16.40
2019-04-07T12:04:09.317Z,14.93
2019-04-07T12:10:17.896Z,19.47
2019-04-07T12:13:10.228Z,16.70
2019-04-07T12:16:05.627Z,15.70
2019-04-07T12:18:54.495Z,15.40
2019-04-07T12:21:43.775Z,20.10
2019-04-07T12:24:39.341Z,16.47
2019-04-07T12:27:27.090Z,14.03
2019-04-07T12:30:15.448Z,19.87
2019-04-07T12:33:04.995Z,17.67
2019-04-07T12:36:26.589Z,18.87
2019-04-07T12:39:19.029Z,31.17
2019-04-07T12:42:08.368Z,19.00
2019-04-07T12:47:57.118Z,15.60
2019-04-07T12:53:45.813Z,14.23
2019-04-07T12:56:34.244Z,14.90
2019-04-07T12:59:29.372Z,15.17
2019-04-07T13:02:19.170Z,18.20
2019-04-07T13:05:13.259Z,12.43
2019-04-07T13:08:24.122Z,12.83
2019-04-07T13:11:26.557Z,11.83
2019-04-07T13:14:09.851Z,13.73
2019-04-07T13:17:04.125Z,15.03
2019-04-07T13:19:51.442Z,12.33
2019-04-07T13:22:58.731Z,12.80
2019-04-07T13:26:07.730Z,23.17
2019-04-07T13:29:02.920Z,20.20
2019-04-07T13:37:53.347Z,14.87
2019-04-07T13:40:44.087Z,14.73
2019-04-07T13:49:38.139Z,14.80
2019-04-07T13:52:26.078Z,13.13
2019-04-07T13:55:14.114Z,12.20
2019-04-07T13:57:59.512Z,12.37
2019-04-07T14:00:53.141Z,14.77
2019-04-07T14:03:40.722Z,11.70
2019-04-07T14:06:28.368Z,13.27
2019-04-07T14:09:15.889Z,10.97
2019-04-07T14:12:22.749Z,10.27
2019-04-07T14:15:10.519Z,9.30
2019-04-07T14:17:58.800Z,10.50
2019-04-07T14:20:46.240Z,14.63
2019-04-07T14:23:26.125Z,20.33
2019-04-07T14:26:14.003Z,12.93
2019-04-07T14:28:58.816Z,10.20
2019-04-07T14:31:57.651Z,11.47
2019-04-07T14:34:45.560Z,10.83
2019-04-07T14:37:40.629Z,10.93
2019-04-07T14:40:49.843Z,9.87
2019-04-07T14:46:40.153Z,8.73
2019-04-07T14:52:44.725Z,9.33
2019-04-07T14:55:39.952Z,8.30
2019-04-07T14:58:28.100Z,7.93
2019-04-07T15:01:16.030Z,9.40
2019-04-07T15:03:44.248Z,8.97
2019-04-07T15:06:52.461Z,9.50
2019-04-07T15:09:40.112Z,12.53
2019-04-07T15:12:28.270Z,9.73
2019-04-07T15:15:37.075Z,9.90
2019-04-07T15:18:05.388Z,11.33
2019-04-07T15:20:34.346Z,8.93
2019-04-07T15:23:13.551Z,11.10
2019-04-07T15:28:44.681Z,11.10
2019-04-07T15:31:13.023Z,12.37
2019-04-07T15:36:51.020Z,13.00
2019-04-07T15:39:30.287Z,12.83
2019-04-07T15:42:33.939Z,12.50
2019-04-07T15:44:54.906Z,12.13
2019-04-07T15:47:23.125Z,10.93
2019-04-07T15:50:10.413Z,10.50
2019-04-07T15:52:41.526Z,10.77
2019-04-07T15:55:56.635Z,14.03
2019-04-07T16:01:28.618Z,10.47
2019-04-07T16:04:37.178Z,11.90
2019-04-07T16:13:40.202Z,18.63
2019-04-07T16:19:13.494Z,12.17
2019-04-07T16:21:42.169Z,14.10
2019-04-07T16:27:23.806Z,10.40
2019-04-07T16:33:12.434Z,11.33
2019-04-07T16:35:41.049Z,12.10
2019-04-07T16:38:17.655Z,10.83
2019-04-07T16:46:34.386Z,10.40
2019-04-07T16:49:46.659Z,13.97
2019-04-07T16:52:20.436Z,11.67
2019-04-07T16:54:48.166Z,9.70
2019-04-07T17:00:38.207Z,12.47
2019-04-07T17:03:54.315Z,12.20
2019-04-07T17:06:22.968Z,11.70
2019-04-07T17:11:53.644Z,11.20
2019-04-07T17:14:22.555Z,13.77
2019-04-07T17:16:59.015Z,13.67
2019-04-07T17:20:07.439Z,16.20
2019-04-07T17:22:36.986Z,15.93
2019-04-07T17:25:14.231Z,18.10
2019-04-07T17:31:09.928Z,14.80
2019-04-07T17:33:39.473Z,17.87
2019-04-07T17:36:08.948Z,17.83
2019-04-07T17:42:11.983Z,12.37
2019-04-07T17:45:02.258Z,10.10
2019-04-07T17:51:12.517Z,9.80
2019-04-07T17:57:27.122Z,9.60
2019-04-07T18:00:41.387Z,13.23
2019-04-07T18:03:41.252Z,11.33
2019-04-07T18:06:34.491Z,8.47
2019-04-07T18:09:29.831Z,7.77
2019-04-07T18:12:38.952Z,7.63
2019-04-07T18:15:36.286Z,7.17
2019-04-07T18:18:30.400Z,7.60
2019-04-07T18:21:37.600Z,7.93
2019-04-07T18:24:46.408Z,10.63
2019-04-07T18:27:34.266Z,20.60
2019-04-07T18:30:42.922Z,19.83
2019-04-07T18:33:30.331Z,34.03
2019-04-07T18:36:38.964Z,20.97
2019-04-07T18:39:27.501Z,16.50
2019-04-07T18:42:36.212Z,12.60
2019-04-07T18:45:23.548Z,16.53
2019-04-07T18:48:12.413Z,11.40
2019-04-07T18:51:10.628Z,13.13
2019-04-07T18:54:24.817Z,11.40
2019-04-07T18:57:20.559Z,13.03
2019-04-07T19:00:31.493Z,19.17
2019-04-07T19:03:51.161Z,24.20
2019-04-07T19:06:46.545Z,17.67
2019-04-07T19:09:39.386Z,19.10
2019-04-07T19:12:36.428Z,21.07
2019-04-07T19:15:17.837Z,19.33
2019-04-07T19:20:45.745Z,21.03
2019-04-07T19:23:33.100Z,21.80
2019-04-07T19:26:32.378Z,23.37
2019-04-07T19:29:20.373Z,21.13
2019-04-07T19:32:07.986Z,20.17
2019-04-07T19:34:55.805Z,21.53
2019-04-07T19:37:44.308Z,18.93
2019-04-07T19:40:53.209Z,20.27
2019-04-07T19:43:37.172Z,19.03
2019-04-07T19:46:27.142Z,19.13
2019-04-07T19:49:22.574Z,18.90
2019-04-07T19:52:16.200Z,19.13
2019-04-07T19:54:51.583Z,18.40
2019-04-07T19:57:39.154Z,19.53
2019-04-07T20:03:50.045Z,18.20
2019-04-07T20:06:37.229Z,17.83
2019-04-07T20:12:46.646Z,19.17
2019-04-07T20:15:57.484Z,18.70
2019-04-07T20:18:52.010Z,18.30
2019-04-07T20:21:41.418Z,17.93
2019-04-07T20:24:38.059Z,19.80
2019-04-07T20:27:31.941Z,19.40
2019-04-07T20:30:19.289Z,20.27
2019-04-07T20:33:29.867Z,18.77
2019-04-07T20:36:24.127Z,18.00
2019-04-07T20:39:17.483Z,17.33
2019-04-07T20:45:13.170Z,16.53
2019-04-07T20:48:01.652Z,16.53
2019-04-07T20:51:10.414Z,16.10
2019-04-07T21:00:03.392Z,16.10
2019-04-07T21:03:20.325Z,15.17
2019-04-07T21:06:10.847Z,15.30
2019-04-07T21:12:19.706Z,15.60
2019-04-07T21:18:09.420Z,16.33
2019-04-07T21:21:07.952Z,15.73
2019-04-07T21:27:08.954Z,14.73
2019-04-07T21:30:14.730Z,14.27
2019-04-07T21:33:11.550Z,14.53
2019-04-07T21:39:00.974Z,13.37
2019-04-07T21:42:07.469Z,14.03
2019-04-07T21:44:50.442Z,12.73
2019-04-07T21:50:58.531Z,12.70
2019-04-07T21:54:05.652Z,12.27
2019-04-07T21:56:53.965Z,12.70
2019-04-07T21:59:48.900Z,13.10
2019-04-07T22:02:40.617Z,13.30
2019-04-07T22:05:57.232Z,11.50
2019-04-07T22:08:50.128Z,11.03
2019-04-07T22:11:22.675Z,11.37
2019-04-07T22:14:08.722Z,12.77
2019-04-07T22:17:16.937Z,11.47
2019-04-07T22:23:09.205Z,12.50
2019-04-07T22:26:20.236Z,11.93
2019-04-07T22:28:59.856Z,11.90
2019-04-07T22:34:09.844Z,12.50
2019-04-07T22:48:58.323Z,13.13
2019-04-07T22:54:05.768Z,13.77
2019-04-07T23:02:44.651Z,12.47
2019-04-07T23:05:12.956Z,12.03
2019-04-07T23:10:42.190Z,11.93
2019-04-07T23:13:21.705Z,9.83
2019-04-07T23:16:10.834Z,10.03
2019-04-07T23:18:31.811Z,8.00
2019-04-07T23:20:59.898Z,7.50
2019-04-07T23:26:17.924Z,8.17
2019-04-07T23:28:47.173Z,7.73
2019-04-07T23:31:15.899Z,8.27
2019-04-07T23:34:25.350Z,8.60
2019-04-07T23:37:01.529Z,7.60
2019-04-07T23:39:49.600Z,7.57
2019-04-07T23:42:28.717Z,7.77
2019-04-07T23:44:56.999Z,6.90
2019-04-07T23:47:24.917Z,7.93
2019-04-07T23:50:12.704Z,7.23
2019-04-07T23:53:13.021Z,7.80
2019-04-07T23:55:42.172Z,6.77
2019-04-07T23:58:18.780Z,7.17
